Time;durP1;ratioP1;P1;durP2;ratioP2;P2;SDS_P1;SDS_P2;PMS_P1;PMS_P2;Temp;Humidity;BMP_temperature;BMP_pressure;BME280_temperature;BME280_humidity;BME280_pressure;Samples;Min_cycle;Max_cycle;Signal;HPM_P1;HPM_P2
2022/12/19 00:02:08;;;;;;;12.10;4.73;;;;;;;-3.99;100.00;102109.24;1811050;79;21022;-72
2022/12/19 00:04:35;;;;;;;10.87;4.50;;;;;;;-3.99;100.00;102119.81;1811385;79;21444;-74
2022/12/19 00:07:03;;;;;;;7.63;4.40;;;;;;;-4.01;100.00;102108.80;1811509;79;21042;-74
2022/12/19 00:09:30;;;;;;;8.80;3.70;;;;;;;-4.05;100.00;102109.77;1811147;79;21013;-75
2022/12/19 00:11:58;;;;;;;7.13;3.80;;;;;;;-4.09;100.00;102111.16;1811140;79;20971;-74
2022/12/19 00:14:25;;;;;;;5.03;3.57;;;;;;;-4.16;100.00;102107.77;1811117;79;20982;-74
2022/12/19 00:16:53;;;;;;;8.27;3.80;;;;;;;-4.21;100.00;102106.52;1809834;79;21019;-74
2022/12/19 00:19:20;;;;;;;6.63;3.60;;;;;;;-4.24;100.00;102107.88;1808395;79;21044;-74
2022/12/19 00:21:46;;;;;;;8.07;3.73;;;;;;;-4.27;100.00;102109.25;1808510;79;21077;-73
2022/12/19 00:24:14;;;;;;;8.47;4.37;;;;;;;-4.30;100.00;102118.56;1808324;79;21070;-75
2022/12/19 00:26:41;;;;;;;7.70;4.10;;;;;;;-4.32;100.00;102107.16;1808172;79;21007;-74
2022/12/19 00:29:09;;;;;;;6.40;3.87;;;;;;;-4.33;100.00;102112.46;1808358;79;21026;-75
2022/12/19 00:31:36;;;;;;;9.53;4.20;;;;;;;-4.33;100.00;102113.78;1808222;79;21038;-74
2022/12/19 00:34:03;;;;;;;10.17;4.50;;;;;;;-4.32;100.00;102115.08;1808468;79;21520;-74
2022/12/19 00:36:33;;;;;;;6.37;3.97;;;;;;;-4.35;100.00;102115.13;1808311;79;21519;-73
2022/12/19 00:39:00;;;;;;;8.97;4.57;;;;;;;-4.37;100.00;102123.52;1808480;79;21013;-74
2022/12/19 00:41:34;;;;;;;9.10;4.07;;;;;;;-4.39;100.00;102121.36;1808406;79;20971;-74
2022/12/19 00:44:03;;;;;;;7.60;3.40;;;;;;;-4.39;100.00;102125.33;1808432;79;21041;-74
2022/12/19 00:46:32;;;;;;;7.90;3.57;;;;;;;-4.39;100.00;102125.33;1808347;79;21006;-74
2022/12/19 00:48:59;;;;;;;8.03;4.10;;;;;;;-4.39;100.00;102132.79;1808526;79;20998;-74
2022/12/19 00:51:32;;;;;;;8.63;3.73;;;;;;;-4.37;100.00;102130.12;1808544;79;21003;-74
2022/12/19 00:53:59;;;;;;;8.90;4.20;;;;;;;-4.36;100.00;102133.17;1808677;79;21461;-75
2022/12/19 00:56:31;;;;;;;7.27;4.00;;;;;;;-4.36;100.00;102129.22;1808193;79;21002;-75
2022/12/19 00:58:59;;;;;;;5.00;3.60;;;;;;;-4.37;100.00;102131.45;1808590;79;20994;-75
2022/12/19 01:01:33;;;;;;;7.17;4.10;;;;;;;-4.37;100.00;102135.84;1808426;79;21018;-74
2022/12/19 01:04:01;;;;;;;9.08;4.58;;;;;;;-4.36;100.00;102125.25;1808347;79;21030;-75
2022/12/19 01:06:28;;;;;;;9.40;4.07;;;;;;;-4.32;100.00;102126.08;1808257;79;21046;-73
2022/12/19 01:08:55;;;;;;;14.33;5.37;;;;;;;-4.29;100.00;102124.25;1808479;79;21038;-74
2022/12/19 01:13:53;;;;;;;15.37;6.03;;;;;;;-4.20;100.00;102133.80;1769142;79;21061;-74
2022/12/19 01:16:19;;;;;;;14.20;5.70;;;;;;;-4.16;100.00;102128.91;1808501;79;20947;-74
2022/12/19 01:18:47;;;;;;;11.30;4.67;;;;;;;-4.11;100.00;102136.74;1808013;79;21051;-74
2022/12/19 01:21:13;;;;;;;12.77;5.07;;;;;;;-4.08;100.00;102136.24;1808302;79;21070;-73
2022/12/19 01:23:41;;;;;;;9.13;4.07;;;;;;;-4.04;100.00;102125.17;1807786;79;21038;-73
2022/12/19 01:26:09;;;;;;;6.80;4.00;;;;;;;-4.01;100.00;102133.91;1808070;79;21038;-74
2022/12/19 01:28:35;;;;;;;6.07;3.80;;;;;;;-3.98;100.00;102140.04;1808460;79;21034;-73
2022/12/19 01:31:05;;;;;;;8.37;4.07;;;;;;;-3.97;100.00;102132.55;1808624;79;20979;-74
2022/12/19 01:33:33;;;;;;;7.63;3.70;;;;;;;-3.94;100.00;102137.79;1787926;79;21081;-74
2022/12/19 01:36:06;;;;;;;7.03;3.80;;;;;;;-3.93;100.00;102143.05;1808383;79;21065;-74
2022/12/19 01:38:34;;;;;;;6.90;3.75;;;;;;;-3.91;100.00;102139.93;1788355;79;21007;-75
2022/12/19 01:41:01;;;;;;;7.97;3.77;;;;;;;-3.89;100.00;102142.09;1808225;79;21029;-74
2022/12/19 01:43:35;;;;;;;7.60;3.97;;;;;;;-3.86;100.00;102134.54;1808472;79;20998;-74
2022/12/19 01:46:03;;;;;;;10.37;3.70;;;;;;;-3.84;100.00;102143.34;1805507;79;20996;-75
2022/12/19 01:48:38;;;;;;;5.27;3.30;;;;;;;-3.80;100.00;102144.16;1808625;79;21065;-74
2022/12/19 01:51:21;;;;;;;6.77;3.50;;;;;;;-3.77;100.00;102143.66;1808351;79;21064;-75
2022/12/19 01:54:00;;;;;;;6.03;3.72;;;;;;;-3.76;100.00;102143.20;1808642;79;21014;-74
2022/12/19 01:56:33;;;;;;;7.17;3.50;;;;;;;-3.74;100.00;102147.54;1808373;79;21046;-74
2022/12/19 01:59:03;;;;;;;8.03;4.00;;;;;;;-3.72;100.00;102148.41;1808296;79;21029;-75
2022/12/19 02:01:30;;;;;;;6.60;3.20;;;;;;;-3.71;100.00;102154.56;1808596;79;21467;-74
2022/12/19 02:03:59;;;;;;;6.83;3.73;;;;;;;-3.70;100.00;102153.22;1808279;79;21015;-74
2022/12/19 02:06:26;;;;;;;7.90;4.03;;;;;;;-3.67;100.00;102158.88;1808339;79;21050;-75
2022/12/19 02:08:53;;;;;;;7.30;3.77;;;;;;;-3.64;100.00;102160.16;1808607;79;21535;-75
2022/12/19 02:11:19;;;;;;;7.27;3.97;;;;;;;-3.61;100.00;102160.11;1808560;79;21011;-75
2022/12/19 02:13:46;;;;;;;5.70;3.60;;;;;;;-3.58;100.00;102165.32;1808698;79;20963;-76
2022/12/19 02:16:35;;;;;;;8.40;4.27;;;;;;;-3.55;100.00;102164.41;1808587;79;21010;-74
2022/12/19 02:19:37;;;;;;;5.90;3.60;;;;;;;-3.55;100.00;102167.91;1808251;79;21500;-75
2022/12/19 02:22:12;;;;;;;5.43;3.43;;;;;;;-3.53;100.00;102164.79;1808522;79;20956;-74
2022/12/19 02:25:15;;;;;;;5.03;3.30;;;;;;;-3.49;100.00;102170.89;1808326;79;21465;-75
2022/12/19 02:27:57;;;;;;;6.33;3.10;;;;;;;-3.48;100.00;102170.87;1808395;79;21046;-75
2022/12/19 02:31:04;;;;;;;8.07;3.47;;;;;;;-3.47;100.00;102173.95;1808755;79;21011;-77
2022/12/19 02:33:42;;;;;;;7.20;3.37;;;;;;;-3.46;100.00;102170.38;1808314;79;21054;-74
2022/12/19 02:36:23;;;;;;;8.70;3.93;;;;;;;-3.45;100.00;102180.53;1808593;79;21512;-74
2022/12/19 02:39:06;;;;;;;6.77;3.50;;;;;;;-3.45;100.00;102189.33;1808693;79;21015;-74
2022/12/19 02:41:49;;;;;;;5.80;3.30;;;;;;;-3.44;100.00;102178.30;1808724;79;21038;-74
2022/12/19 02:44:32;;;;;;;6.03;3.10;;;;;;;-3.42;100.00;102175.63;1808654;79;21011;-75
2022/12/19 02:47:00;;;;;;;5.07;3.20;;;;;;;-3.43;100.00;102173.44;1808732;79;21034;-75
2022/12/19 02:49:35;;;;;;;5.27;3.00;;;;;;;-3.44;100.00;102180.48;1808764;79;21039;-74
2022/12/19 02:52:21;;;;;;;5.17;2.73;;;;;;;-3.47;100.00;102184.53;1808760;79;21011;-75
2022/12/19 02:54:52;;;;;;;5.43;2.90;;;;;;;-3.48;100.00;102188.52;1807342;79;21050;-75
2022/12/19 02:57:45;;;;;;;5.70;3.10;;;;;;;-3.49;100.00;102193.38;1808977;79;21050;-75
2022/12/19 03:00:20;;;;;;;6.33;3.00;;;;;;;-3.48;100.00;102199.96;1808669;79;21053;-76
2022/12/19 03:03:17;;;;;;;7.07;3.30;;;;;;;-3.48;100.00;102201.74;1808798;79;21020;-76
2022/12/19 03:06:09;;;;;;;5.10;3.00;;;;;;;-3.49;100.00;102200.88;1808377;79;21058;-75
2022/12/19 03:08:51;;;;;;;5.17;3.10;;;;;;;-3.52;100.00;102204.90;1808521;79;21034;-75
2022/12/19 03:11:20;;;;;;;5.27;3.00;;;;;;;-3.58;100.00;102202.34;1808506;79;21019;-75
2022/12/19 03:14:03;;;;;;;5.70;3.10;;;;;;;-3.63;100.00;102210.80;1808661;79;20989;-75
2022/12/19 03:16:30;;;;;;;6.05;3.00;;;;;;;-3.69;100.00;102207.83;1809057;79;21634;-75
2022/12/19 03:18:59;;;;;;;4.30;3.20;;;;;;;-3.72;100.00;102213.19;1810900;79;21058;-75
2022/12/19 03:21:30;;;;;;;4.07;3.13;;;;;;;-3.77;100.00;102213.72;1811363;79;21045;-75
2022/12/19 03:23:57;;;;;;;4.70;3.27;;;;;;;-3.78;100.00;102217.70;1811495;79;20959;-75
2022/12/19 03:26:30;;;;;;;5.80;2.93;;;;;;;-3.81;100.00;102223.89;1811526;79;21010;-75
2022/12/19 03:29:08;;;;;;;6.55;3.22;;;;;;;-3.84;100.00;102225.30;1811571;79;21014;-75
2022/12/19 03:31:35;;;;;;;4.60;3.10;;;;;;;-3.88;100.00;102236.37;1797314;79;21050;-74
2022/12/19 03:34:16;;;;;;;4.33;3.30;;;;;;;-3.94;100.00;102236.91;1811378;79;21039;-75
2022/12/19 03:36:47;;;;;;;6.63;3.33;;;;;;;-3.99;100.00;102237.42;1811278;79;21526;-74
2022/12/19 03:39:14;;;;;;;5.97;3.30;;;;;;;-4.02;100.00;102244.93;1811444;79;20998;-75
2022/12/19 03:44:31;;;;;;;4.87;2.93;;;;;;;-4.07;100.00;102258.66;1811378;79;20951;-74
2022/12/19 03:47:09;;;;;;;4.87;3.30;;;;;;;-4.12;100.00;102257.42;1811577;79;20970;-74
2022/12/19 03:49:36;;;;;;;5.83;3.33;;;;;;;-4.14;100.00;102251.30;1811543;79;21478;-74
2022/12/19 03:52:27;;;;;;;7.43;4.00;;;;;;;-4.16;100.00;102254.84;1811370;79;21057;-73
2022/12/19 03:55:12;;;;;;;7.47;3.70;;;;;;;-4.20;100.00;102258.88;1811566;79;20959;-74
2022/12/19 03:57:51;;;;;;;8.40;3.97;;;;;;;-4.22;100.00;102266.38;1796066;79;21019;-75
2022/12/19 04:00:18;;;;;;;7.97;4.20;;;;;;;-4.25;100.00;102271.27;1819786;79;21069;-74
2022/12/19 04:02:47;;;;;;;7.57;3.80;;;;;;;-4.29;100.00;102268.22;1811183;79;21042;-75
2022/12/19 04:05:24;;;;;;;6.43;3.50;;;;;;;-4.31;100.00;102270.02;1811131;79;20995;-74
2022/12/19 04:07:54;;;;;;;5.93;3.97;;;;;;;-4.36;100.00;102278.45;1811224;79;21010;-75
2022/12/19 04:10:23;;;;;;;7.40;3.83;;;;;;;-4.41;100.00;102284.23;1811471;79;21019;-74
2022/12/19 04:12:59;;;;;;;5.77;4.00;;;;;;;-4.45;100.00;102285.18;1811399;79;21566;-74
2022/12/19 04:15:39;;;;;;;6.07;4.00;;;;;;;-4.47;100.00;102293.12;1809946;79;21037;-74
2022/12/19 04:18:05;;;;;;;5.80;3.27;;;;;;;-4.49;100.00;102297.55;1810805;79;21151;-75
2022/12/19 04:20:33;;;;;;;6.97;3.83;;;;;;;-4.53;100.00;102304.20;1811175;79;20999;-74
2022/12/19 04:23:24;;;;;;;7.03;3.87;;;;;;;-4.57;100.00;102307.32;1811043;79;21045;-74
2022/12/19 04:25:54;;;;;;;6.50;3.70;;;;;;;-4.61;100.00;102309.58;1811310;79;21065;-74
2022/12/19 04:28:26;;;;;;;5.20;3.40;;;;;;;-4.66;100.00;102305.66;1811355;79;21436;-74
2022/12/19 04:30:54;;;;;;;6.75;3.67;;;;;;;-4.68;100.00;102313.19;1810187;79;21014;-74
2022/12/19 04:33:21;;;;;;;5.60;3.53;;;;;;;-4.72;100.00;102320.73;1811313;79;21030;-74
2022/12/19 04:35:47;;;;;;;7.30;3.97;;;;;;;-4.73;100.00;102322.47;1811164;79;20975;-74
2022/12/19 04:38:14;;;;;;;8.17;4.07;;;;;;;-4.77;100.00;102338.78;1811099;79;20990;-74
2022/12/19 04:40:43;;;;;;;9.20;4.07;;;;;;;-4.78;100.00;102334.84;1811202;79;20971;-74
2022/12/19 04:43:11;;;;;;;6.87;3.63;;;;;;;-4.81;100.00;102341.50;1811054;79;21018;-75
2022/12/19 04:45:40;;;;;;;8.03;4.23;;;;;;;-4.83;100.00;102343.28;1811180;79;21006;-75
2022/12/19 04:48:07;;;;;;;10.63;4.67;;;;;;;-4.85;100.00;102343.72;1811122;79;20983;-74
2022/12/19 04:50:34;;;;;;;13.17;5.00;;;;;;;-4.87;100.00;102344.18;1811312;79;21061;-74
2022/12/19 04:53:01;;;;;;;9.57;4.87;;;;;;;-4.89;100.00;102354.75;1810896;79;21022;-73
2022/12/19 04:55:29;;;;;;;10.83;4.87;;;;;;;-4.91;100.00;102353.03;1810785;79;20971;-74
2022/12/19 04:57:55;;;;;;;9.77;4.30;;;;;;;-4.94;100.00;102364.47;1810946;78;21007;-73
2022/12/19 05:00:24;;;;;;;5.83;3.87;;;;;;;-4.96;100.00;102364.52;1810893;79;20987;-73
2022/12/19 05:02:51;;;;;;;9.63;3.83;;;;;;;-4.99;100.00;102368.50;1810988;79;21073;-73
2022/12/19 05:05:18;;;;;;;7.50;3.73;;;;;;;-4.99;100.00;102382.14;1810923;79;21038;-73
2022/12/19 05:07:45;;;;;;;10.50;4.30;;;;;;;-5.01;100.00;102383.47;1811264;79;21508;-73
2022/12/19 05:10:13;;;;;;;7.27;3.87;;;;;;;-5.02;100.00;102380.84;1811194;79;21030;-74
2022/12/19 05:12:39;;;;;;;6.33;3.67;;;;;;;-5.04;100.00;102383.49;1811127;79;20955;-74
2022/12/19 05:15:08;;;;;;;10.20;4.23;;;;;;;-5.04;100.00;102382.17;1811034;79;21487;-73
2022/12/19 05:17:36;;;;;;;9.77;4.73;;;;;;;-5.05;100.00;102386.14;1810631;79;20971;-73
2022/12/19 05:20:05;;;;;;;11.60;5.23;;;;;;;-5.06;100.00;102389.23;1808147;79;21010;-74
2022/12/19 05:22:32;;;;;;;12.00;5.70;;;;;;;-5.07;100.00;102394.06;1808197;79;21073;-74
2022/12/19 05:24:59;;;;;;;9.50;4.60;;;;;;;-5.10;100.00;102401.13;1787873;79;21480;-75
2022/12/19 05:27:25;;;;;;;8.47;4.60;;;;;;;-5.11;100.00;102404.22;1808200;79;20966;-74
2022/12/19 05:29:52;;;;;;;16.93;6.40;;;;;;;-5.13;100.00;102402.05;1808018;79;21061;-74
2022/12/19 05:32:19;;;;;;;9.93;4.90;;;;;;;-5.13;100.00;102412.59;1807844;79;21069;-73
2022/12/19 05:34:48;;;;;;;18.83;6.30;;;;;;;-5.16;100.00;102411.30;1807644;79;21543;-73
2022/12/19 05:37:14;;;;;;;13.13;5.77;;;;;;;-5.18;100.00;102417.03;1807588;79;20955;-73
2022/12/19 05:39:43;;;;;;;11.20;4.97;;;;;;;-5.19;100.00;102412.21;1807489;79;21460;-73
2022/12/19 05:42:10;;;;;;;9.47;4.70;;;;;;;-5.18;100.00;102425.81;1807792;79;21003;-75
2022/12/19 05:44:38;;;;;;;7.77;4.10;;;;;;;-5.18;100.00;102428.91;1807482;79;21054;-72
2022/12/19 05:47:06;;;;;;;10.90;4.40;;;;;;;-5.18;100.00;102431.55;1807674;79;21461;-73
2022/12/19 05:49:37;;;;;;;8.80;4.47;;;;;;;-5.18;100.00;102427.13;1807548;79;21051;-73
2022/12/19 05:52:05;;;;;;;9.43;4.40;;;;;;;-5.16;100.00;102435.91;1807475;79;21077;-74
2022/12/19 05:54:32;;;;;;;10.13;4.97;;;;;;;-5.16;100.00;102429.77;1807572;79;21433;-73
2022/12/19 05:57:00;;;;;;;7.17;4.23;;;;;;;-5.16;100.00;102434.59;1807517;79;21035;-72
2022/12/19 05:59:27;;;;;;;10.37;4.53;;;;;;;-5.14;100.00;102435.89;1807437;79;21084;-73
2022/12/19 06:01:54;;;;;;;9.23;4.40;;;;;;;-5.15;100.00;102446.91;1807600;79;20967;-74
2022/12/19 06:04:21;;;;;;;11.87;5.00;;;;;;;-5.16;100.00;102457.01;1786021;79;20969;-73
2022/12/19 06:06:48;;;;;;;12.10;5.63;;;;;;;-5.17;100.00;102453.06;1774318;80;21514;-74
2022/12/19 06:09:15;;;;;;;9.43;4.50;;;;;;;-5.18;100.00;102455.28;1774084;81;20997;-72
2022/12/19 06:11:42;;;;;;;10.23;4.70;;;;;;;-5.19;100.00;102460.11;1774435;81;20992;-74
2022/12/19 06:14:09;;;;;;;11.03;4.80;;;;;;;-5.16;100.00;102465.38;1773999;81;21044;-74
2022/12/19 06:16:37;;;;;;;15.90;7.67;;;;;;;-5.13;100.00;102467.10;1773989;81;21033;-74
2022/12/19 06:19:04;;;;;;;15.73;6.00;;;;;;;-5.10;100.00;102474.55;1755301;80;21056;-73
2022/12/19 06:21:31;;;;;;;11.70;5.20;;;;;;;-5.06;100.00;102480.26;1785072;79;21016;-73
2022/12/19 06:23:58;;;;;;;21.37;8.77;;;;;;;-5.05;100.00;102487.27;1794712;79;20995;-72
2022/12/19 06:26:26;;;;;;;11.10;5.67;;;;;;;-5.04;100.00;102494.77;1789286;79;20956;-73
2022/12/19 06:28:54;;;;;;;12.97;5.80;;;;;;;-5.04;100.00;102494.31;1788844;79;21004;-74
2022/12/19 06:31:23;;;;;;;11.53;5.90;;;;;;;-5.02;100.00;102499.12;1788617;80;21030;-73
2022/12/19 06:33:53;;;;;;;22.03;12.77;;;;;;;-5.01;100.00;102496.94;1813291;79;20989;-74
2022/12/19 06:36:25;;;;;;;16.23;7.60;;;;;;;-4.97;100.00;102499.11;1815877;79;21026;-75
2022/12/19 06:38:54;;;;;;;24.40;14.10;;;;;;;-4.94;100.00;102497.74;1815640;79;21010;-74
2022/12/19 06:44:11;;;;;;;26.97;13.67;;;;;;;-4.87;100.00;102496.84;1777581;79;21009;-72
2022/12/19 06:46:40;;;;;;;28.07;15.10;;;;;;;-4.85;100.00;102492.84;1797343;80;21479;-70
2022/12/19 06:49:07;;;;;;;17.10;8.73;;;;;;;-4.83;100.00;102487.13;1797990;79;21076;-70
2022/12/19 06:51:34;;;;;;;29.27;15.87;;;;;;;-4.80;100.00;102497.22;1814987;79;21022;-71
2022/12/19 06:54:04;;;;;;;26.83;14.07;;;;;;;-4.75;100.00;102487.92;1813026;79;21057;-74
2022/12/19 06:56:39;;;;;;;26.27;12.43;;;;;;;-4.68;100.00;102493.58;1774725;80;21139;-72
2022/12/19 06:59:06;;;;;;;13.83;6.40;;;;;;;-4.61;100.00;102489.12;1819622;79;20990;-69
2022/12/19 07:01:58;;;;;;;10.67;5.20;;;;;;;-4.58;100.00;102500.98;1796779;79;21034;-73
2022/12/19 07:04:37;;;;;;;19.27;10.10;;;;;;;-4.59;100.00;102504.51;1753129;81;21519;-70
2022/12/19 07:07:04;;;;;;;16.20;8.60;;;;;;;-4.54;100.00;102514.59;1796865;80;21068;-72
2022/12/19 07:09:32;;;;;;;21.37;11.00;;;;;;;-4.56;100.00;102518.15;1796725;80;21037;-71
2022/12/19 07:12:00;;;;;;;17.10;8.97;;;;;;;-4.58;100.00;102520.80;1796510;80;21134;-72
2022/12/19 07:14:27;;;;;;;15.03;7.33;;;;;;;-4.57;100.00;102526.48;1796203;80;21009;-72
2022/12/19 07:16:54;;;;;;;16.57;8.40;;;;;;;-4.54;100.00;102539.67;1796333;80;21055;-71
2022/12/19 07:19:21;;;;;;;12.80;5.90;;;;;;;-4.51;100.00;102534.38;1767082;79;21049;-72
2022/12/19 07:21:48;;;;;;;18.10;8.37;;;;;;;-4.50;100.00;102549.31;1793471;80;21057;-72
2022/12/19 07:24:16;;;;;;;22.90;10.10;;;;;;;-4.50;100.00;102544.03;1796053;80;21077;-72
2022/12/19 07:26:45;;;;;;;12.23;6.17;;;;;;;-4.49;100.00;102549.76;1823692;78;21022;-71
2022/12/19 07:29:12;;;;;;;14.30;6.83;;;;;;;-4.46;100.00;102551.48;1766998;79;21476;-72
2022/12/19 07:31:39;;;;;;;23.50;10.20;;;;;;;-4.39;100.00;102549.25;1808300;79;21015;-73
2022/12/19 07:34:07;;;;;;;16.07;7.27;;;;;;;-4.29;100.00;102555.31;1812609;79;20999;-72
2022/12/19 07:36:34;;;;;;;20.17;7.63;;;;;;;-4.20;100.00;102562.72;1800760;79;21070;-72
2022/12/19 07:39:02;;;;;;;19.77;9.50;;;;;;;-4.09;100.00;102559.97;1755185;82;21081;-73
2022/12/19 07:41:29;;;;;;;25.10;14.00;;;;;;;-3.95;100.00;102561.13;1758313;80;21038;-72
2022/12/19 07:43:56;;;;;;;21.50;9.43;;;;;;;-3.82;100.00;102563.21;1820760;78;21021;-73
2022/12/19 07:46:23;;;;;;;15.37;6.83;;;;;;;-3.73;100.00;102576.32;1810333;79;21007;-72
2022/12/19 07:48:50;;;;;;;10.50;5.83;;;;;;;-3.68;100.00;102573.64;1756431;81;21070;-75
2022/12/19 07:51:17;;;;;;;16.83;6.60;;;;;;;-3.69;100.00;102581.12;1756358;82;21045;-75
2022/12/19 07:53:44;;;;;;;22.93;6.80;;;;;;;-3.74;100.00;102578.98;1784689;80;21066;-72
2022/12/19 07:56:13;;;;;;;14.43;6.97;;;;;;;-3.79;100.00;102582.11;1780540;80;21065;-72
2022/12/19 07:58:45;;;;;;;14.80;5.65;;;;;;;-3.80;100.00;102581.25;1771597;80;21045;-73
2022/12/19 08:01:12;;;;;;;14.07;6.40;;;;;;;-3.75;100.00;102582.50;1775532;80;21151;-73
2022/12/19 08:03:40;;;;;;;14.40;6.63;;;;;;;-3.68;100.00;102577.15;1786857;80;21008;-73
2022/12/19 08:06:07;;;;;;;29.03;11.37;;;;;;;-3.59;100.00;102569.55;1787768;80;21020;-73
2022/12/19 08:08:36;;;;;;;29.20;14.80;;;;;;;-3.44;100.00;102575.09;1787275;80;21529;-73
2022/12/19 08:11:16;;;;;;;19.07;8.83;;;;;;;-3.27;100.00;102569.14;1787534;80;21489;-71
2022/12/19 08:13:44;;;;;;;25.00;11.90;;;;;;;-3.12;100.00;102560.11;1787456;80;20956;-72
2022/12/19 08:16:11;;;;;;;13.33;6.73;;;;;;;-2.99;100.00;102559.94;1787301;80;21020;-74
2022/12/19 08:18:39;;;;;;;37.43;14.63;;;;;;;-2.95;100.00;102561.66;1786411;80;21063;-72
2022/12/19 08:21:08;;;;;;;33.90;17.17;;;;;;;-2.94;100.00;102555.02;1782009;80;21091;-74
2022/12/19 08:23:35;;;;;;;25.00;12.57;;;;;;;-2.84;100.00;102549.13;1782400;80;21486;-75
2022/12/19 08:26:04;;;;;;;26.53;11.23;;;;;;;-2.78;100.00;102554.34;1782520;80;21067;-75
2022/12/19 08:28:33;;;;;;;18.07;8.67;;;;;;;-2.79;100.00;102554.36;1782358;80;21501;-73
2022/12/19 08:31:10;;;;;;;21.93;11.20;;;;;;;-2.83;100.00;102550.89;1755810;82;21025;-73
2022/12/19 08:33:40;;;;;;;18.87;11.27;;;;;;;-2.87;100.00;102546.09;1756110;82;20989;-75
2022/12/19 08:36:11;;;;;;;27.87;9.60;;;;;;;-2.83;100.00;102540.30;1778154;81;21010;-74
2022/12/19 08:38:41;;;;;;;21.70;8.30;;;;;;;-2.78;100.00;102538.45;1776921;81;21018;-73
2022/12/19 08:41:08;;;;;;;17.10;7.90;;;;;;;-2.69;100.00;102533.00;1747030;82;21066;-74
2022/12/19 08:43:34;;;;;;;19.63;8.90;;;;;;;-2.69;100.00;102537.44;1747577;82;21042;-75
2022/12/19 08:46:01;;;;;;;37.53;17.10;;;;;;;-2.63;100.00;102539.97;1745383;82;21055;-73
2022/12/19 08:48:28;;;;;;;29.23;13.70;;;;;;;-2.51;100.00;102546.85;1739345;82;21543;-73
2022/12/19 08:50:58;;;;;;;23.57;12.17;;;;;;;-2.40;100.00;102532.95;1689875;82;21058;-74
2022/12/19 08:53:29;;;;;;;33.43;13.90;;;;;;;-2.32;100.00;102541.66;1738203;82;20965;-76
2022/12/19 08:55:58;;;;;;;27.47;13.50;;;;;;;-2.24;100.00;102539.32;1730143;82;21048;-74
2022/12/19 08:58:26;;;;;;;29.50;15.07;;;;;;;-2.22;100.00;102514.52;1732817;82;21047;-73
2022/12/19 09:00:56;;;;;;;24.03;12.77;;;;;;;-2.17;100.00;102509.15;1741320;82;21046;-74
2022/12/19 09:03:23;;;;;;;22.77;12.00;;;;;;;-2.10;100.00;102512.97;1741107;82;21038;-75
2022/12/19 09:06:09;;;;;;;26.83;12.37;;;;;;;-2.05;100.00;102502.72;1741432;82;21070;-74
2022/12/19 09:08:44;;;;;;;36.03;14.90;;;;;;;-1.96;100.00;102501.23;1737828;82;21050;-73
2022/12/19 09:11:13;;;;;;;24.87;11.97;;;;;;;-1.76;100.00;102498.17;1736337;82;21549;-74
2022/12/19 09:13:42;;;;;;;21.87;9.80;;;;;;;-1.63;100.00;102502.34;1731091;82;21057;-74
2022/12/19 09:16:15;;;;;;;17.37;7.20;;;;;;;-1.53;100.00;102491.92;1739930;82;21563;-72
2022/12/19 09:18:45;;;;;;;14.77;6.97;;;;;;;-1.42;100.00;102494.80;1743542;79;20998;-74
2022/12/19 09:21:12;;;;;;;23.00;10.13;;;;;;;-1.48;100.00;102503.77;1808019;79;20987;-72
2022/12/19 09:23:42;;;;;;;21.50;7.93;;;;;;;-1.53;100.00;102497.22;1807700;79;21066;-73
2022/12/19 09:26:11;;;;;;;23.50;10.80;;;;;;;-1.49;100.00;102493.19;1808003;79;21404;-73
2022/12/19 09:28:41;;;;;;;23.67;9.47;;;;;;;-1.49;100.00;102487.87;1805963;79;20956;-74
2022/12/19 09:31:12;;;;;;;15.57;7.40;;;;;;;-1.48;100.00;102485.20;1794143;79;20999;-74
2022/12/19 09:33:40;;;;;;;15.27;7.93;;;;;;;-1.47;100.00;102487.39;1767471;81;21040;-73
2022/12/19 09:36:16;;;;;;;29.70;15.40;;;;;;;-1.51;100.00;102493.22;1767048;81;20995;-74
2022/12/19 09:38:47;;;;;;;18.40;9.07;;;;;;;-1.54;100.00;102488.86;1736003;81;21515;-73
2022/12/19 09:41:39;;;;;;;21.57;9.83;;;;;;;-1.51;100.00;102486.58;1765730;81;21041;-74
2022/12/19 09:44:21;;;;;;;14.73;6.97;;;;;;;-1.44;100.00;102486.87;1765445;81;21056;-72
2022/12/19 09:46:55;;;;;;;20.60;7.30;;;;;;;-1.43;100.00;102485.97;1768722;80;21092;-73
2022/12/19 09:49:25;;;;;;;13.40;6.67;;;;;;;-1.49;100.00;102484.77;1804843;79;20986;-75
2022/12/19 09:51:59;;;;;;;16.80;6.37;;;;;;;-1.51;100.00;102489.70;1826742;78;21018;-75
2022/12/19 09:54:52;;;;;;;22.60;9.67;;;;;;;-1.49;100.00;102487.41;1826492;79;21041;-72
2022/12/19 09:57:50;;;;;;;18.47;8.57;;;;;;;-1.37;100.00;102476.53;1797675;78;21045;-75
2022/12/19 10:00:22;;;;;;;15.53;7.33;;;;;;;-1.24;100.00;102489.52;1794289;80;21043;-75
2022/12/19 10:03:00;;;;;;;14.07;7.37;;;;;;;-1.11;100.00;102484.37;1765162;80;21033;-74
2022/12/19 10:06:10;;;;;;;15.20;7.13;;;;;;;-0.98;100.00;102484.94;1767768;81;21033;-73
2022/12/19 10:08:44;;;;;;;24.10;12.80;;;;;;;-0.95;100.00;102492.84;1749164;81;21065;-73
2022/12/19 10:11:39;;;;;;;17.87;8.13;;;;;;;-0.94;100.00;102497.22;1766550;81;21076;-76
2022/12/19 10:14:27;;;;;;;23.13;10.73;;;;;;;-0.86;100.00;102499.72;1766660;81;21065;-75
2022/12/19 10:17:30;;;;;;;18.10;8.27;;;;;;;-0.79;100.00;102496.86;1667005;86;21109;-74
2022/12/19 10:20:24;;;;;;;22.13;10.17;;;;;;;-0.65;100.00;102500.98;1658771;86;21098;-75
2022/12/19 10:23:34;;;;;;;18.73;7.70;;;;;;;-0.56;100.00;102496.75;1647856;87;21756;-74
2022/12/19 10:26:18;;;;;;;18.23;7.93;;;;;;;-0.64;100.00;102502.27;1648454;86;21094;-71
2022/12/19 10:29:14;;;;;;;17.93;8.37;;;;;;;-0.68;100.00;102489.09;1648389;87;21032;-74
2022/12/19 10:31:58;;;;;;;19.67;9.00;;;;;;;-0.70;100.00;102489.59;1654246;85;21533;-73
2022/12/19 10:34:35;;;;;;;22.10;9.70;;;;;;;-0.62;100.00;102500.87;1683231;85;21058;-72
2022/12/19 10:37:08;;;;;;;19.73;8.53;;;;;;;-0.59;100.00;102504.33;1662358;85;21001;-72
2022/12/19 10:39:52;;;;;;;19.02;7.62;;;;;;;-0.60;100.00;102512.37;1636522;88;21066;-71
2022/12/19 10:42:42;;;;;;;20.83;8.30;;;;;;;-0.53;100.00;102519.27;1641609;87;21057;-74
2022/12/19 10:45:16;;;;;;;21.77;9.17;;;;;;;-0.54;100.00;102532.59;1636115;87;21095;-73
2022/12/19 10:47:43;;;;;;;16.37;7.70;;;;;;;-0.57;100.00;102533.53;1688378;84;21002;-71
2022/12/19 10:50:12;;;;;;;20.27;7.00;;;;;;;-0.59;100.00;102544.66;1717531;82;20995;-72
2022/12/19 10:52:59;;;;;;;22.33;8.40;;;;;;;-0.53;100.00;102548.51;1777055;81;21022;-70
2022/12/19 10:55:48;;;;;;;22.13;8.60;;;;;;;-0.52;100.00;102543.59;1776115;81;21027;-72
2022/12/19 10:58:29;;;;;;;22.77;10.00;;;;;;;-0.56;100.00;102542.39;1772035;80;20932;-73
2022/12/19 11:01:21;;;;;;;22.97;11.03;;;;;;;-0.64;100.00;102530.61;1757745;81;21067;-66
2022/12/19 11:03:51;;;;;;;19.40;6.93;;;;;;;-0.66;100.00;102535.95;1780480;80;21042;-72
2022/12/19 11:06:39;;;;;;;44.47;26.03;;;;;;;-0.68;100.00;102528.95;1766219;80;21090;-72
2022/12/19 11:09:23;;;;;;;43.60;21.63;;;;;;;-0.74;100.00;102521.11;1749620;80;20987;-72
2022/12/19 11:12:10;;;;;;;18.53;9.13;;;;;;;-0.80;100.00;102535.42;1767548;80;21524;-72
2022/12/19 11:14:41;;;;;;;18.60;8.80;;;;;;;-0.72;100.00;102540.57;1781117;80;20951;-71
2022/12/19 11:17:26;;;;;;;15.30;6.60;;;;;;;-0.70;100.00;102544.06;1776693;79;21014;-73
2022/12/19 11:19:53;;;;;;;21.60;8.47;;;;;;;-0.76;100.00;102538.44;1777004;80;21048;-74
2022/12/19 11:22:29;;;;;;;15.33;7.23;;;;;;;-0.94;100.00;102530.42;1744229;82;21063;-73
2022/12/19 11:24:57;;;;;;;23.57;9.33;;;;;;;-1.07;100.00;102536.95;1774714;81;21033;-74
2022/12/19 11:27:44;;;;;;;18.43;6.87;;;;;;;-1.15;100.00;102542.45;1789110;80;21018;-74
2022/12/19 11:30:23;;;;;;;15.73;6.23;;;;;;;-1.21;100.00;102557.16;1795519;80;21061;-75
2022/12/19 11:33:17;;;;;;;19.53;8.07;;;;;;;-1.29;100.00;102552.03;1795912;80;21037;-72
2022/12/19 11:35:53;;;;;;;27.35;10.70;;;;;;;-1.32;100.00;102554.75;1734426;82;21472;-76
2022/12/19 11:38:38;;;;;;;25.60;12.50;;;;;;;-1.38;100.00;102563.72;1784076;80;21065;-75
2022/12/19 11:41:15;;;;;;;27.53;9.73;;;;;;;-1.29;100.00;102562.66;1796082;80;21507;-74
2022/12/19 11:43:53;;;;;;;25.70;12.80;;;;;;;-1.13;100.00;102555.66;1796324;80;21023;-74
2022/12/19 11:46:49;;;;;;;26.70;13.20;;;;;;;-0.78;100.00;102554.84;1796472;80;20998;-73